Time;durP1;ratioP1;P1;durP2;ratioP2;P2;SDS_P1;SDS_P2;PMS_P1;PMS_P2;Temp;Humidity;BMP_temperature;BMP_pressure;BME280_temperature;BME280_humidity;BME280_pressure;Samples;Min_cycle;Max_cycle;Signal;HPM_P1;HPM_P2
2022/02/25 00:00:01;;;;;;;5.43;3.63;;;;;;;4.93;74.38;98564.47;5048021;28;20096;-71
2022/02/25 00:02:26;;;;;;;4.32;2.97;;;;;;;4.93;74.62;98567.09;5049469;28;20041;-71
2022/02/25 00:04:52;;;;;;;5.53;2.80;;;;;;;4.87;74.67;98578.56;5049780;28;20029;-72
2022/02/25 00:07:17;;;;;;;6.85;4.22;;;;;;;4.83;74.11;98572.06;5049410;28;20424;-72
2022/02/25 00:09:42;;;;;;;7.25;3.08;;;;;;;4.89;73.70;98589.72;5052932;28;20025;-72
2022/02/25 00:12:08;;;;;;;3.67;3.13;;;;;;;4.93;73.45;98591.72;5054545;28;20037;-70
2022/02/25 00:14:33;;;;;;;3.53;3.10;;;;;;;4.90;73.90;98591.34;5048610;28;20029;-71
2022/02/25 00:16:58;;;;;;;2.42;2.22;;;;;;;4.89;73.34;98595.03;5051753;28;20200;-70
2022/02/25 00:19:24;;;;;;;4.30;3.40;;;;;;;4.82;73.49;98604.84;5053130;28;20492;-70
2022/02/25 00:21:50;;;;;;;4.38;2.90;;;;;;;4.85;73.94;98617.63;5052975;28;20116;-71
2022/02/25 00:24:15;;;;;;;4.50;2.88;;;;;;;4.80;73.93;98617.47;5052888;28;20033;-72
2022/02/25 00:26:41;;;;;;;4.18;2.63;;;;;;;4.74;73.68;98618.34;5052969;28;20456;-73
2022/02/25 00:29:06;;;;;;;3.72;2.50;;;;;;;4.71;73.87;98616.94;5050199;28;20045;-73
2022/02/25 00:31:32;;;;;;;3.90;2.72;;;;;;;4.80;73.29;98618.28;5052990;28;20033;-71
2022/02/25 00:33:58;;;;;;;2.53;2.10;;;;;;;4.73;73.40;98619.34;5050722;28;20036;-73
2022/02/25 00:36:23;;;;;;;7.18;2.53;;;;;;;4.66;73.58;98634.47;5052438;28;20021;-72
2022/02/25 00:38:49;;;;;;;2.10;1.90;;;;;;;4.72;73.42;98633.63;5052908;28;20027;-72
2022/02/25 00:41:15;;;;;;;2.30;1.98;;;;;;;4.70;73.53;98641.75;5052264;28;20025;-71
2022/02/25 00:43:40;;;;;;;4.75;1.70;;;;;;;4.64;73.30;98637.31;5053833;28;20476;-70
2022/02/25 00:46:05;;;;;;;2.72;2.17;;;;;;;4.63;73.33;98653.41;5051607;28;20040;-72
2022/02/25 00:48:31;;;;;;;4.45;1.98;;;;;;;4.64;72.91;98647.91;5052260;28;20377;-73
2022/02/25 00:50:56;;;;;;;2.30;1.80;;;;;;;4.64;73.18;98658.47;5052215;28;20151;-73
2022/02/25 00:53:21;;;;;;;1.70;1.60;;;;;;;4.67;72.95;98657.22;5053569;28;20111;-73
2022/02/25 00:55:46;;;;;;;2.38;1.85;;;;;;;4.63;73.51;98645.47;5051966;28;20033;-72
2022/02/25 00:58:12;;;;;;;2.00;1.52;;;;;;;4.65;72.73;98656.66;5051947;28;20036;-72
2022/02/25 01:00:37;;;;;;;1.52;1.42;;;;;;;4.44;73.63;98657.78;5046398;28;20108;-72
2022/02/25 01:03:02;;;;;;;3.97;1.50;;;;;;;4.44;73.06;98658.59;5051010;28;20032;-72
2022/02/25 01:05:28;;;;;;;2.65;1.40;;;;;;;4.49;73.43;98671.19;5048012;28;20028;-72
2022/02/25 01:07:54;;;;;;;3.65;1.80;;;;;;;4.41;73.53;98682.81;5047703;28;20094;-71
2022/02/25 01:10:19;;;;;;;2.03;1.33;;;;;;;4.40;73.23;98672.47;5049511;28;20032;-73
2022/02/25 01:12:46;;;;;;;3.78;2.28;;;;;;;4.31;73.64;98658.69;5047001;28;20055;-71
2022/02/25 01:15:13;;;;;;;3.40;1.20;;;;;;;4.45;72.91;98675.28;5051140;28;20086;-71
2022/02/25 01:17:39;;;;;;;3.58;1.48;;;;;;;4.41;72.84;98666.16;5049626;28;20166;-72
2022/02/25 01:20:06;;;;;;;1.48;1.00;;;;;;;4.46;72.88;98682.16;5050775;28;20513;-72
2022/02/25 01:22:32;;;;;;;1.58;1.38;;;;;;;4.42;72.83;98676.50;5051296;28;20149;-72
2022/02/25 01:24:59;;;;;;;4.88;1.15;;;;;;;4.35;73.13;98682.84;5051211;28;20129;-72
2022/02/25 01:27:24;;;;;;;1.73;1.15;;;;;;;4.42;72.88;98689.72;5048921;28;20032;-71
2022/02/25 01:29:50;;;;;;;2.78;1.40;;;;;;;4.38;72.77;98693.81;5049789;28;20025;-71
2022/02/25 01:32:15;;;;;;;1.52;1.33;;;;;;;4.25;72.84;98691.25;5050581;28;20409;-72
2022/02/25 01:34:41;;;;;;;2.42;1.40;;;;;;;4.29;73.27;98700.38;5049544;28;20037;-73
2022/02/25 01:37:06;;;;;;;1.13;1.02;;;;;;;4.26;72.61;98707.91;5050996;28;20103;-72
2022/02/25 01:39:32;;;;;;;1.67;1.10;;;;;;;4.14;73.06;98701.66;5045080;28;20106;-73
2022/02/25 01:41:57;;;;;;;2.65;0.90;;;;;;;4.23;73.13;98716.25;5051045;28;20091;-73
2022/02/25 01:44:25;;;;;;;3.10;1.52;;;;;;;4.28;72.61;98711.16;5050953;28;20115;-71
2022/02/25 01:46:53;;;;;;;1.52;1.40;;;;;;;4.31;72.92;98710.72;5049777;28;20150;-71
2022/02/25 01:49:19;;;;;;;1.30;1.15;;;;;;;4.32;72.49;98715.00;5050025;28;20032;-71
2022/02/25 01:51:47;;;;;;;2.90;1.20;;;;;;;4.33;72.58;98721.88;5051056;28;20055;-73
2022/02/25 01:54:13;;;;;;;2.47;1.25;;;;;;;4.24;72.46;98720.50;5050647;28;20032;-71
2022/02/25 01:56:40;;;;;;;3.22;1.10;;;;;;;4.11;73.08;98721.38;5049136;28;20037;-73
2022/02/25 01:59:06;;;;;;;1.70;1.42;;;;;;;4.08;72.91;98729.75;5050444;28;20029;-73
2022/02/25 02:01:32;;;;;;;4.95;1.35;;;;;;;4.12;73.03;98738.84;5042981;28;20033;-72
2022/02/25 02:03:58;;;;;;;2.15;1.30;;;;;;;4.18;72.53;98737.19;5049284;28;20105;-70
2022/02/25 02:06:23;;;;;;;2.28;1.50;;;;;;;4.26;72.34;98742.25;5049902;28;20041;-71
2022/02/25 02:08:49;;;;;;;2.33;1.08;;;;;;;4.20;72.72;98749.19;5051730;28;20041;-72
2022/02/25 02:11:30;;;;;;;6.85;1.45;;;;;;;4.15;72.60;98754.28;5045465;28;20049;-72
2022/02/25 02:13:56;;;;;;;5.65;2.30;;;;;;;4.08;72.82;98758.78;5046525;28;20032;-72
2022/02/25 02:16:21;;;;;;;4.30;1.50;;;;;;;4.19;72.40;98754.69;5049411;28;20520;-72
2022/02/25 02:18:47;;;;;;;4.13;1.27;;;;;;;4.22;72.08;98770.09;5048921;28;20061;-71
2022/02/25 02:21:13;;;;;;;2.47;1.42;;;;;;;4.16;72.30;98763.81;5049485;28;20389;-71
2022/02/25 02:23:38;;;;;;;2.50;1.23;;;;;;;4.17;72.20;98756.72;5049262;28;20378;-71
2022/02/25 02:26:03;;;;;;;2.67;1.63;;;;;;;4.15;72.68;98775.41;5044516;28;20063;-72
2022/02/25 02:28:29;;;;;;;3.80;1.52;;;;;;;4.12;72.63;98791.69;5050050;28;20071;-71
2022/02/25 02:30:54;;;;;;;2.05;1.40;;;;;;;4.05;72.79;98775.03;5049533;28;20107;-72
2022/02/25 02:33:20;;;;;;;5.35;1.48;;;;;;;4.13;72.75;98789.84;5048896;28;20074;-72
2022/02/25 02:35:46;;;;;;;2.03;1.85;;;;;;;4.09;73.11;98785.97;5049059;28;20029;-72
2022/02/25 02:38:12;;;;;;;3.65;1.65;;;;;;;4.13;72.96;98785.38;5049727;28;20041;-72
2022/02/25 02:40:38;;;;;;;3.13;1.92;;;;;;;4.15;72.45;98788.59;5049607;28;20040;-72
2022/02/25 02:43:03;;;;;;;4.38;2.00;;;;;;;4.13;72.45;98787.22;5046800;28;20387;-72
2022/02/25 02:45:29;;;;;;;6.88;2.22;;;;;;;4.12;72.62;98806.72;5050062;28;20021;-72
2022/02/25 02:47:54;;;;;;;4.38;2.25;;;;;;;4.15;72.22;98807.09;5049784;28;20075;-72
2022/02/25 02:50:20;;;;;;;2.67;2.15;;;;;;;4.16;72.43;98800.81;5050494;28;20417;-72
2022/02/25 02:52:45;;;;;;;8.95;2.83;;;;;;;4.15;72.50;98812.38;5050374;28;20028;-72
2022/02/25 02:55:10;;;;;;;3.22;2.25;;;;;;;4.11;72.60;98808.53;5049709;28;20073;-72
2022/02/25 02:57:36;;;;;;;9.05;2.55;;;;;;;4.12;72.70;98812.81;5050575;28;20074;-72
2022/02/25 03:00:04;;;;;;;3.50;1.70;;;;;;;4.15;72.52;98815.00;5049292;28;20037;-72
2022/02/25 03:02:29;;;;;;;3.10;2.63;;;;;;;4.15;72.52;98807.09;5050391;28;20401;-72
2022/02/25 03:04:55;;;;;;;5.78;2.28;;;;;;;4.10;72.22;98806.09;5049904;28;20037;-72
2022/02/25 03:07:20;;;;;;;4.35;2.10;;;;;;;4.14;72.71;98823.97;5049370;28;20094;-72
2022/02/25 03:09:45;;;;;;;7.07;2.08;;;;;;;4.10;72.54;98801.66;5053870;28;20039;-73
2022/02/25 03:12:11;;;;;;;7.60;2.08;;;;;;;4.15;72.76;98815.00;5050464;28;20037;-74
2022/02/25 03:14:36;;;;;;;6.03;2.05;;;;;;;4.16;72.61;98808.72;5048474;28;20029;-72
2022/02/25 03:17:03;;;;;;;4.30;2.85;;;;;;;4.11;72.28;98811.16;5048924;28;20564;-72
2022/02/25 03:19:28;;;;;;;3.95;2.25;;;;;;;4.14;72.43;98810.78;5049125;28;20539;-73
2022/02/25 03:21:53;;;;;;;3.70;1.75;;;;;;;4.14;72.12;98820.50;5050122;28;20029;-73
2022/02/25 03:24:19;;;;;;;1.85;1.75;;;;;;;4.09;72.92;98823.78;5050180;28;20576;-73
2022/02/25 03:26:44;;;;;;;3.03;2.45;;;;;;;4.13;72.65;98827.63;5049577;28;20381;-74
2022/02/25 03:29:11;;;;;;;8.57;2.50;;;;;;;4.11;72.16;98831.47;5050243;28;20033;-73
2022/02/25 03:31:36;;;;;;;7.97;2.78;;;;;;;4.10;72.54;98827.22;5049227;28;20100;-72
2022/02/25 03:34:01;;;;;;;3.38;1.95;;;;;;;4.12;72.15;98835.75;5049118;28;20120;-74
2022/02/25 03:36:27;;;;;;;5.95;2.45;;;;;;;4.08;72.53;98832.72;5058291;28;20033;-72
2022/02/25 03:38:52;;;;;;;6.00;2.60;;;;;;;4.10;72.68;98837.78;5055334;28;20101;-73
2022/02/25 03:41:18;;;;;;;8.25;2.78;;;;;;;4.08;72.40;98840.66;5055074;28;20033;-72
2022/02/25 03:43:43;;;;;;;7.45;2.80;;;;;;;4.11;72.44;98853.44;5057609;28;20029;-74
2022/02/25 03:46:08;;;;;;;3.63;2.15;;;;;;;4.11;72.36;98848.16;5054506;28;20036;-73
2022/02/25 03:48:34;;;;;;;2.67;1.80;;;;;;;4.12;72.58;98860.34;5056119;28;20044;-74
2022/02/25 03:51:00;;;;;;;2.75;1.75;;;;;;;4.06;71.94;98841.88;5057995;28;20033;-73
2022/02/25 03:53:25;;;;;;;4.10;2.10;;;;;;;4.08;72.51;98853.03;5057790;28;20084;-73
2022/02/25 03:55:50;;;;;;;7.75;2.33;;;;;;;4.09;72.06;98849.38;5047798;28;20028;-74
2022/02/25 03:58:16;;;;;;;5.85;1.63;;;;;;;4.03;72.34;98845.75;5051341;28;20048;-74
2022/02/25 04:00:41;;;;;;;6.40;2.40;;;;;;;4.06;72.25;98855.09;5050762;28;20033;-74
2022/02/25 04:03:06;;;;;;;9.38;1.95;;;;;;;4.02;71.76;98854.66;5053894;28;20040;-73
2022/02/25 04:05:31;;;;;;;6.25;2.63;;;;;;;4.05;71.86;98859.53;5049051;28;20102;-73
2022/02/25 04:07:57;;;;;;;6.05;2.30;;;;;;;4.01;71.68;98874.19;5059836;28;20070;-74
2022/02/25 04:10:22;;;;;;;2.65;2.03;;;;;;;3.96;72.35;98871.34;5060936;28;20090;-74
2022/02/25 04:12:48;;;;;;;5.45;2.00;;;;;;;3.96;72.08;98866.06;5052818;28;20029;-73
2022/02/25 04:15:13;;;;;;;4.45;2.10;;;;;;;4.00;72.06;98874.41;5052041;28;20375;-74
2022/02/25 04:17:39;;;;;;;7.88;2.67;;;;;;;3.94;72.50;98868.09;5044768;28;20119;-71
2022/02/25 04:20:06;;;;;;;5.28;2.13;;;;;;;4.00;71.98;98872.53;5049112;28;20025;-71
2022/02/25 04:22:31;;;;;;;3.25;2.10;;;;;;;3.98;72.04;98882.50;5048422;28;20087;-72
2022/02/25 04:24:56;;;;;;;4.68;1.95;;;;;;;3.94;72.31;98885.75;5048112;28;20029;-72
2022/02/25 04:27:22;;;;;;;7.00;1.70;;;;;;;3.95;72.17;98885.56;5051951;28;20486;-72
2022/02/25 04:29:48;;;;;;;7.03;2.20;;;;;;;3.95;72.26;98888.22;5046543;28;20025;-73
2022/02/25 04:32:13;;;;;;;8.30;2.30;;;;;;;3.93;72.33;98889.44;5049644;28;20045;-71
2022/02/25 04:34:39;;;;;;;5.80;1.77;;;;;;;3.96;72.58;98895.09;5052103;28;20032;-71
2022/02/25 04:37:04;;;;;;;5.43;1.67;;;;;;;3.94;72.16;98883.94;5048457;28;20041;-72
2022/02/25 04:39:30;;;;;;;3.42;1.58;;;;;;;3.97;72.49;98898.56;5051080;28;20489;-72
2022/02/25 04:41:55;;;;;;;6.95;2.35;;;;;;;3.95;72.44;98888.22;5031050;28;20509;-71
2022/02/25 04:44:22;;;;;;;4.45;2.05;;;;;;;3.90;72.57;98882.72;5047642;28;20116;-71
2022/02/25 04:46:47;;;;;;;4.13;1.80;;;;;;;3.93;72.77;98881.50;5051081;28;20155;-74
2022/02/25 04:49:13;;;;;;;3.83;2.38;;;;;;;3.95;72.79;98888.22;5047089;28;20537;-73
2022/02/25 04:51:38;;;;;;;4.30;1.77;;;;;;;3.94;72.81;98885.75;5044992;28;20028;-72
2022/02/25 04:54:04;;;;;;;10.48;1.88;;;;;;;3.91;72.57;98879.06;5051369;28;20064;-71
2022/02/25 04:56:29;;;;;;;5.70;2.00;;;;;;;3.93;72.66;98881.50;5052514;28;20123;-71
2022/02/25 04:58:54;;;;;;;4.95;2.10;;;;;;;3.89;72.30;98875.03;5052228;28;20031;-71
2022/02/25 05:01:20;;;;;;;5.43;2.00;;;;;;;3.91;72.01;98879.06;5052912;28;20393;-71
2022/02/25 05:03:45;;;;;;;5.65;2.22;;;;;;;3.90;72.30;98880.09;5051718;28;20482;-71
2022/02/25 05:06:10;;;;;;;4.43;2.70;;;;;;;3.89;72.28;98864.47;5050624;28;20497;-72
2022/02/25 05:08:36;;;;;;;3.58;2.10;;;;;;;3.88;72.00;98868.91;5052429;28;20033;-71
2022/02/25 05:11:01;;;;;;;4.80;1.98;;;;;;;3.88;72.29;98868.91;5051005;28;20064;-72
2022/02/25 05:13:26;;;;;;;4.45;2.10;;;;;;;3.88;72.18;98866.28;5049714;28;20037;-72
2022/02/25 05:21:20;;;;;;;3.42;2.40;;;;;;;3.84;72.31;98873.00;5047974;28;20496;-73
2022/02/25 05:23:46;;;;;;;11.20;2.97;;;;;;;3.78;72.55;98868.50;5050808;28;20197;-73
2022/02/25 05:26:11;;;;;;;6.25;2.60;;;;;;;3.81;72.40;98878.66;5057528;28;20029;-72
2022/02/25 05:28:39;;;;;;;7.07;2.95;;;;;;;3.78;72.13;98874.59;5054191;28;20489;-72
2022/02/25 05:31:04;;;;;;;6.75;3.00;;;;;;;3.77;72.48;98888.84;5051449;28;20036;-72
2022/02/25 05:33:29;;;;;;;5.00;2.60;;;;;;;3.77;72.51;98877.44;5053454;28;20417;-72
2022/02/25 05:35:55;;;;;;;2.55;2.28;;;;;;;3.71;72.63;98873.00;5053777;28;20116;-74
2022/02/25 05:38:20;;;;;;;6.82;3.00;;;;;;;3.74;71.94;98883.94;5059809;28;20513;-72
2022/02/25 05:40:45;;;;;;;4.00;3.13;;;;;;;3.66;72.47;98863.06;5044578;28;20053;-74
2022/02/25 05:43:11;;;;;;;7.05;3.25;;;;;;;3.70;72.54;98872.19;5061131;28;20028;-72
2022/02/25 05:45:37;;;;;;;10.00;3.40;;;;;;;3.73;72.26;98878.88;5046058;28;20047;-72
2022/02/25 05:48:02;;;;;;;3.55;2.95;;;;;;;3.72;72.02;98882.53;5052102;28;20436;-72
2022/02/25 05:50:28;;;;;;;4.82;4.03;;;;;;;3.67;72.13;98885.78;5032510;28;20063;-72
2022/02/25 05:52:53;;;;;;;7.32;3.90;;;;;;;3.68;72.29;98889.22;5050972;28;20032;-72
2022/02/25 05:55:20;;;;;;;7.03;3.67;;;;;;;3.67;72.50;98887.59;5056629;28;20465;-72
2022/02/25 05:57:46;;;;;;;4.72;3.50;;;;;;;3.65;72.22;98894.91;5050550;28;20055;-72
2022/02/25 06:00:15;;;;;;;7.97;3.88;;;;;;;3.63;72.38;98904.84;5049011;28;20057;-72
2022/02/25 06:02:42;;;;;;;10.55;4.15;;;;;;;3.63;72.46;98904.84;5049734;28;20716;-72
2022/02/25 06:05:08;;;;;;;8.85;4.28;;;;;;;3.62;72.33;98911.97;5045207;28;20634;-74
2022/02/25 06:07:33;;;;;;;6.40;4.00;;;;;;;3.60;72.28;98916.63;5048718;28;20068;-74
2022/02/25 06:09:58;;;;;;;10.27;4.45;;;;;;;3.55;72.50;98915.63;5053098;28;20033;-71
2022/02/25 06:12:24;;;;;;;6.88;5.07;;;;;;;3.60;72.34;98926.38;5060676;28;20052;-73
2022/02/25 06:14:49;;;;;;;7.40;4.55;;;;;;;3.56;72.75;98922.53;5056342;28;20037;-73
2022/02/25 06:17:14;;;;;;;7.80;4.63;;;;;;;3.56;72.50;98922.53;5048039;28;20024;-74
2022/02/25 06:19:40;;;;;;;14.50;4.60;;;;;;;3.56;72.89;98912.75;5054021;28;20038;-73
2022/02/25 06:22:05;;;;;;;5.88;3.97;;;;;;;3.54;72.60;98917.44;5048693;28;20048;-72
2022/02/25 06:24:30;;;;;;;10.50;4.03;;;;;;;3.54;72.49;98913.97;5050171;28;20060;-73
2022/02/25 06:26:56;;;;;;;6.55;4.53;;;;;;;3.46;72.57;98901.81;5039826;28;20041;-74
2022/02/25 06:29:21;;;;;;;10.63;4.65;;;;;;;3.44;72.00;98898.56;5052505;28;20068;-78
2022/02/25 06:31:46;;;;;;;8.38;5.10;;;;;;;3.49;72.56;98913.78;5047274;28;22083;-71
2022/02/25 06:34:12;;;;;;;8.63;4.53;;;;;;;3.52;72.30;98918.66;5053339;28;20044;-71
2022/02/25 06:36:38;;;;;;;8.63;5.00;;;;;;;3.43;72.36;98915.38;5053090;28;20536;-71
2022/02/25 06:39:04;;;;;;;11.55;5.32;;;;;;;3.41;72.48;98914.78;5047994;28;20112;-71
2022/02/25 06:41:29;;;;;;;10.82;4.32;;;;;;;3.47;72.22;98924.53;5051035;28;20445;-72
2022/02/25 06:43:58;;;;;;;8.77;5.38;;;;;;;3.46;72.43;98928.19;5046365;28;20060;-71
2022/02/25 06:46:24;;;;;;;10.85;4.65;;;;;;;3.47;72.30;98924.53;5052387;28;20678;-72
2022/02/25 06:48:50;;;;;;;10.02;4.75;;;;;;;3.40;72.50;98922.91;5054300;28;20028;-71
2022/02/25 06:51:15;;;;;;;10.57;4.47;;;;;;;3.40;72.30;98918.44;5059299;28;20036;-71
2022/02/25 06:53:41;;;;;;;11.00;4.55;;;;;;;3.40;72.28;98928.19;5060519;28;20028;-70
2022/02/25 06:56:06;;;;;;;8.55;4.20;;;;;;;3.44;72.64;98929.41;5056349;28;20115;-71
2022/02/25 06:58:32;;;;;;;10.30;4.32;;;;;;;3.44;72.32;98924.13;5056475;28;20575;-71
2022/02/25 07:00:57;;;;;;;12.57;4.88;;;;;;;3.44;72.68;98939.94;5062282;28;20032;-73
2022/02/25 07:03:23;;;;;;;9.18;3.75;;;;;;;3.45;72.59;98944.22;5059731;28;20051;-70
2022/02/25 07:05:48;;;;;;;6.70;3.70;;;;;;;3.43;72.35;98943.63;5059538;28;20043;-71
2022/02/25 07:08:14;;;;;;;11.13;3.83;;;;;;;3.42;72.91;98948.06;5052714;28;20049;-71
2022/02/25 07:10:41;;;;;;;12.40;4.82;;;;;;;3.46;72.22;98954.56;5052624;28;20474;-70
2022/02/25 07:13:08;;;;;;;11.48;4.03;;;;;;;3.43;72.35;98952.31;5063694;28;20032;-71
2022/02/25 07:15:34;;;;;;;5.88;3.88;;;;;;;3.46;72.28;98953.75;5058180;28;20024;-70
2022/02/25 07:18:00;;;;;;;6.50;3.85;;;;;;;3.46;72.33;98965.13;5069467;28;20036;-71
2022/02/25 07:20:27;;;;;;;12.60;4.63;;;;;;;3.47;72.20;98947.47;5075665;28;20084;-72
2022/02/25 07:22:53;;;;;;;9.55;4.22;;;;;;;3.44;72.57;98963.69;5059729;28;20029;-71
2022/02/25 07:25:18;;;;;;;8.43;3.72;;;;;;;3.44;72.53;98951.31;5054203;28;20033;-72
2022/02/25 07:27:44;;;;;;;7.80;4.28;;;;;;;3.41;72.28;98949.06;5059335;28;20024;-72
2022/02/25 07:30:10;;;;;;;7.80;4.50;;;;;;;3.39;72.76;98943.19;5059164;28;20104;-72
2022/02/25 07:32:36;;;;;;;7.53;3.53;;;;;;;3.44;72.85;98955.78;5060538;28;20056;-72
2022/02/25 07:35:03;;;;;;;7.22;4.25;;;;;;;3.40;72.66;98938.72;5062085;28;20029;-72
2022/02/25 07:37:29;;;;;;;7.93;4.00;;;;;;;3.46;72.48;98945.84;5052632;28;20024;-71
2022/02/25 07:39:54;;;;;;;7.22;3.80;;;;;;;3.48;72.60;98946.44;5052014;28;20126;-74
2022/02/25 07:42:21;;;;;;;8.60;3.55;;;;;;;3.49;72.71;98956.00;5049587;28;20545;-72
2022/02/25 07:44:46;;;;;;;8.25;3.65;;;;;;;3.46;72.57;98954.56;5053277;28;20048;-71
2022/02/25 07:47:12;;;;;;;7.63;3.53;;;;;;;3.49;72.49;98950.72;5052666;28;20029;-72
2022/02/25 07:49:37;;;;;;;7.50;3.40;;;;;;;3.47;72.30;98956.19;5053980;28;20473;-72
2022/02/25 07:52:03;;;;;;;9.07;2.97;;;;;;;3.42;72.59;98948.06;5053626;28;20071;-70
2022/02/25 07:54:31;;;;;;;6.85;3.78;;;;;;;3.47;72.28;98958.03;5053389;28;20436;-71
2022/02/25 07:56:56;;;;;;;6.00;3.72;;;;;;;3.51;72.63;98961.88;5053207;28;20041;-71
2022/02/25 07:59:22;;;;;;;6.93;3.00;;;;;;;3.45;72.81;98952.94;5053821;28;20567;-72
2022/02/25 08:01:47;;;;;;;9.30;3.55;;;;;;;3.51;72.34;98965.34;5053130;28;20032;-71
2022/02/25 08:04:12;;;;;;;10.20;3.55;;;;;;;3.49;72.43;98962.09;5053510;28;20041;-71
2022/02/25 08:06:38;;;;;;;7.32;3.25;;;;;;;3.44;72.47;98953.97;5053491;28;20432;-72
2022/02/25 08:09:03;;;;;;;5.95;3.35;;;;;;;3.53;72.18;98978.34;5053027;28;20029;-71
2022/02/25 08:11:29;;;;;;;9.02;3.22;;;;;;;3.54;72.44;98993.94;5052730;28;20021;-70
2022/02/25 08:13:54;;;;;;;10.00;3.05;;;;;;;3.53;72.11;98988.88;5060382;28;20108;-72
2022/02/25 08:16:21;;;;;;;11.57;3.53;;;;;;;3.53;72.16;98988.88;5051960;28;20048;-71
2022/02/25 08:18:47;;;;;;;9.70;3.72;;;;;;;3.40;72.48;98967.75;5051744;28;20111;-71
2022/02/25 08:21:12;;;;;;;9.48;3.85;;;;;;;3.57;72.52;98998.03;5044848;28;20112;-72
2022/02/25 08:23:37;;;;;;;11.30;3.47;;;;;;;3.58;72.55;99005.72;5052907;28;20117;-71
2022/02/25 08:26:03;;;;;;;7.43;3.67;;;;;;;3.59;72.77;98988.06;5052427;28;20033;-70
2022/02/25 08:28:28;;;;;;;10.93;3.30;;;;;;;3.64;72.64;99009.41;5052423;28;20036;-70
2022/02/25 08:30:53;;;;;;;7.07;3.30;;;;;;;3.66;72.68;99002.94;5052909;28;20032;-71
2022/02/25 08:33:19;;;;;;;6.05;3.03;;;;;;;3.61;72.87;99004.53;5052703;28;20029;-71
2022/02/25 08:35:44;;;;;;;8.50;3.15;;;;;;;3.72;72.68;99019.78;5057364;28;20032;-71
2022/02/25 08:38:10;;;;;;;7.32;3.53;;;;;;;3.75;72.54;99024.66;5053164;28;20036;-72
2022/02/25 08:40:36;;;;;;;7.47;3.13;;;;;;;3.77;72.81;99027.91;5052567;28;20039;-72
2022/02/25 08:43:02;;;;;;;4.82;2.83;;;;;;;3.82;72.65;99024.69;5052253;28;20033;-70
2022/02/25 08:45:28;;;;;;;11.30;4.80;;;;;;;3.84;72.60;99020.81;5052851;28;20036;-71
2022/02/25 08:47:54;;;;;;;11.13;4.22;;;;;;;3.89;72.75;99023.66;5053347;28;20175;-71
2022/02/25 08:50:20;;;;;;;10.40;3.60;;;;;;;3.92;72.87;99038.28;5052770;28;20119;-70
2022/02/25 08:52:49;;;;;;;10.98;2.67;;;;;;;3.97;72.68;99034.03;5053464;28;20378;-70
2022/02/25 08:55:15;;;;;;;15.63;4.13;;;;;;;4.00;72.69;99030.19;5053269;28;20040;-71
2022/02/25 08:57:42;;;;;;;11.15;4.05;;;;;;;4.02;72.30;99044.78;5052456;28;20044;-72
2022/02/25 09:00:10;;;;;;;11.52;3.60;;;;;;;4.07;72.46;99030.97;5052338;28;20425;-71
2022/02/25 09:02:35;;;;;;;9.82;3.10;;;;;;;4.09;72.16;99027.13;5052120;28;20032;-72
2022/02/25 09:05:02;;;;;;;10.43;3.70;;;;;;;4.14;71.56;99026.53;5050618;28;20033;-71
2022/02/25 09:07:28;;;;;;;8.20;3.40;;;;;;;4.20;72.29;99033.63;5050516;28;20031;-72
2022/02/25 09:09:54;;;;;;;9.20;2.80;;;;;;;4.23;71.67;99025.31;5051931;28;20166;-72
2022/02/25 09:12:19;;;;;;;11.85;3.20;;;;;;;4.29;71.64;99029.78;5052278;28;20107;-70
2022/02/25 09:14:44;;;;;;;10.38;3.03;;;;;;;4.32;71.68;99029.38;5051955;28;20071;-71
2022/02/25 09:17:10;;;;;;;11.20;4.25;;;;;;;4.35;71.22;99019.19;5051480;28;20573;-71
2022/02/25 09:19:35;;;;;;;8.75;3.40;;;;;;;4.35;71.52;99016.56;5052338;28;20036;-72
2022/02/25 09:22:01;;;;;;;10.93;3.13;;;;;;;4.35;71.42;99008.63;5052969;28;20491;-70
2022/02/25 09:24:27;;;;;;;6.88;2.85;;;;;;;4.41;71.26;99005.16;5051973;28;20619;-70
2022/02/25 09:26:52;;;;;;;11.63;3.85;;;;;;;4.46;71.00;99015.13;5035061;28;20126;-70
2022/02/25 09:29:18;;;;;;;7.70;3.03;;;;;;;4.44;70.87;98998.66;5050189;28;20393;-71
2022/02/25 09:31:43;;;;;;;7.55;3.05;;;;;;;4.50;70.99;99011.88;5052361;28;20033;-71
2022/02/25 09:34:09;;;;;;;9.07;2.85;;;;;;;4.48;70.93;99000.69;5051554;28;20498;-71
2022/02/25 09:36:34;;;;;;;6.32;3.05;;;;;;;4.51;71.06;98994.19;5050563;28;20847;-71
2022/02/25 09:39:00;;;;;;;9.13;3.13;;;;;;;4.53;71.49;98995.63;5051138;28;20044;-71
2022/02/25 09:41:27;;;;;;;8.40;3.38;;;;;;;4.56;71.11;99002.31;5047707;28;20074;-70
2022/02/25 09:43:52;;;;;;;10.95;3.70;;;;;;;4.57;71.45;99004.75;5050620;28;20032;-70
2022/02/25 09:46:17;;;;;;;8.27;2.95;;;;;;;4.59;71.70;99009.03;5055150;28;20043;-70
2022/02/25 09:48:43;;;;;;;12.43;3.80;;;;;;;4.64;71.56;99006.56;5052042;28;20485;-71
2022/02/25 09:51:08;;;;;;;8.48;2.83;;;;;;;4.67;71.36;99014.09;5050297;28;20036;-70
2022/02/25 09:53:34;;;;;;;7.07;3.00;;;;;;;4.72;71.73;99019.59;5051535;28;20041;-71
2022/02/25 09:56:01;;;;;;;7.90;3.10;;;;;;;4.77;71.45;99012.63;5051774;28;20126;-71
2022/02/25 09:58:26;;;;;;;11.80;3.63;;;;;;;4.76;70.91;99011.00;5050447;28;20033;-70
2022/02/25 10:00:52;;;;;;;8.32;2.75;;;;;;;4.85;71.16;99027.47;5051197;28;20056;-71
2022/02/25 10:03:21;;;;;;;5.15;2.83;;;;;;;4.89;71.43;99029.47;5051541;28;20477;-71
2022/02/25 10:05:47;;;;;;;8.25;3.10;;;;;;;4.96;70.98;99027.63;5051459;28;20021;-71
2022/02/25 10:08:23;;;;;;;11.98;3.00;;;;;;;4.97;71.20;99023.16;5050613;28;20048;-72
2022/02/25 10:10:53;;;;;;;8.13;3.75;;;;;;;5.04;70.97;99023.97;5051358;28;20057;-71
2022/02/25 10:13:28;;;;;;;9.35;3.03;;;;;;;5.03;70.72;99012.56;5051276;28;20063;-71
2022/02/25 10:15:57;;;;;;;9.20;3.42;;;;;;;5.07;70.50;99016.41;5050001;28;20033;-71
2022/02/25 10:18:31;;;;;;;11.45;3.25;;;;;;;5.09;70.54;99017.00;5051007;28;20064;-72
2022/02/25 10:21:08;;;;;;;7.75;3.17;;;;;;;5.14;70.33;99014.56;5050294;28;20048;-70
2022/02/25 10:23:37;;;;;;;7.78;3.22;;;;;;;5.17;70.66;99014.16;5051409;28;20040;-71
2022/02/25 10:26:28;;;;;;;11.80;3.10;;;;;;;5.17;70.52;99008.88;5052171;28;20039;-71
2022/02/25 10:28:55;;;;;;;14.95;3.58;;;;;;;5.23;70.63;99023.88;5047389;28;20036;-70
2022/02/25 10:31:24;;;;;;;8.10;2.35;;;;;;;5.25;70.62;99013.91;5050580;28;20032;-71
2022/02/25 10:34:02;;;;;;;5.10;3.15;;;;;;;5.24;70.27;99014.13;5050851;28;20025;-71
2022/02/25 10:36:45;;;;;;;11.45;2.92;;;;;;;5.20;70.17;99019.00;5050821;28;20016;-70
2022/02/25 10:39:17;;;;;;;11.65;2.97;;;;;;;5.21;71.46;99025.13;5050426;28;20036;-70
2022/02/25 10:41:59;;;;;;;12.07;3.25;;;;;;;5.12;71.46;99029.00;5049632;28;20397;-70
2022/02/25 10:44:46;;;;;;;11.02;3.15;;;;;;;5.04;72.38;99031.91;5049183;28;20036;-69
2022/02/25 10:47:32;;;;;;;7.20;3.30;;;;;;;5.02;72.77;99040.03;5050561;28;20109;-72
2022/02/25 10:50:09;;;;;;;5.22;3.45;;;;;;;4.93;73.54;99051.06;5050778;28;20048;-71
2022/02/25 10:52:37;;;;;;;10.05;3.05;;;;;;;4.87;73.64;99055.31;5050315;28;20036;-70
2022/02/25 10:55:15;;;;;;;10.50;3.35;;;;;;;4.88;74.05;99054.31;5056919;28;20408;-70
2022/02/25 10:57:41;;;;;;;13.15;3.10;;;;;;;4.86;73.92;99058.19;5050793;28;20154;-70
2022/02/25 11:00:10;;;;;;;9.13;3.15;;;;;;;4.83;74.42;99062.03;5050367;28;20071;-71
2022/02/25 11:02:40;;;;;;;10.15;3.42;;;;;;;4.82;74.66;99067.53;5051577;28;20064;-70
2022/02/25 11:05:08;;;;;;;9.05;3.45;;;;;;;4.74;74.49;99057.19;5049723;28;20021;-70
2022/02/25 11:07:36;;;;;;;10.70;2.72;;;;;;;4.75;74.47;99074.66;5055090;28;20035;-70
2022/02/25 11:10:03;;;;;;;9.70;2.53;;;;;;;4.73;74.59;99079.34;5049846;28;20083;-70
2022/02/25 11:12:28;;;;;;;12.55;2.97;;;;;;;4.69;74.59;99078.97;5048566;28;20052;-70
2022/02/25 11:14:56;;;;;;;5.13;2.50;;;;;;;4.68;74.96;99082.59;5048887;28;20059;-70
2022/02/25 11:17:22;;;;;;;4.45;2.40;;;;;;;4.60;74.43;99079.38;5050436;28;20087;-73
2022/02/25 11:19:50;;;;;;;8.63;2.53;;;;;;;4.61;74.59;99079.16;5048948;28;20048;-70
2022/02/25 11:22:18;;;;;;;7.45;3.75;;;;;;;4.62;75.13;99087.91;5050257;28;20025;-70
2022/02/25 11:24:44;;;;;;;4.47;2.47;;;;;;;4.53;75.09;99090.75;5033564;28;20078;-70
2022/02/25 11:27:09;;;;;;;7.13;2.80;;;;;;;4.54;74.76;99100.28;5049442;28;20033;-70
2022/02/25 11:29:53;;;;;;;11.60;2.70;;;;;;;4.48;75.03;99101.13;5050942;28;20406;-70
2022/02/25 11:32:25;;;;;;;5.45;2.33;;;;;;;4.51;75.40;99108.66;5050235;28;20029;-70
2022/02/25 11:34:51;;;;;;;7.38;2.85;;;;;;;4.50;75.23;99109.66;5050188;28;20248;-71
2022/02/25 11:37:46;;;;;;;4.25;2.03;;;;;;;4.46;75.62;99113.72;5049154;28;20405;-70
2022/02/25 11:40:12;;;;;;;7.95;4.20;;;;;;;4.49;75.53;99108.03;5048563;28;20041;-73